createdAt,value
2019-06-08T00:01:09.596Z,0
2019-06-08T00:02:21.714Z,0
2019-06-08T00:03:33.903Z,0
2019-06-08T00:04:46.103Z,0
2019-06-08T00:05:58.361Z,0
2019-06-08T00:07:10.683Z,0
2019-06-08T00:08:22.765Z,0
2019-06-08T00:09:34.973Z,0
2019-06-08T00:10:47.166Z,0
2019-06-08T00:11:59.349Z,0
2019-06-08T00:13:11.543Z,0
2019-06-08T00:14:23.735Z,0
2019-06-08T00:15:36.040Z,0
2019-06-08T00:16:48.161Z,0
2019-06-08T00:18:00.230Z,0
2019-06-08T00:19:16.353Z,0
2019-06-08T00:20:30.850Z,0
2019-06-08T00:21:36.883Z,0
2019-06-08T00:22:48.992Z,0
2019-06-08T00:24:01.203Z,0
2019-06-08T00:25:13.501Z,0
2019-06-08T00:26:25.618Z,0
2019-06-08T00:27:37.849Z,0
2019-06-08T00:28:50.022Z,0
2019-06-08T00:30:02.245Z,0
2019-06-08T00:31:14.483Z,0
2019-06-08T00:32:26.647Z,0
2019-06-08T00:33:38.909Z,0
2019-06-08T00:34:51.077Z,0
2019-06-08T00:36:03.176Z,0
2019-06-08T00:37:15.648Z,0
2019-06-08T00:38:27.596Z,0
2019-06-08T00:39:39.770Z,0
2019-06-08T00:40:52.102Z,0
2019-06-08T00:42:04.096Z,0
2019-06-08T00:43:16.347Z,0
2019-06-08T00:44:28.593Z,0
2019-06-08T00:45:40.755Z,0
2019-06-08T00:46:52.867Z,0
2019-06-08T00:48:05.063Z,0
2019-06-08T00:49:17.359Z,0
2019-06-08T00:50:29.529Z,0
2019-06-08T00:51:41.640Z,0
2019-06-08T00:52:54.012Z,0
2019-06-08T00:54:06.139Z,0
2019-06-08T00:55:18.307Z,0
2019-06-08T00:56:30.416Z,0
2019-06-08T00:57:42.756Z,0
2019-06-08T00:58:54.807Z,0
2019-06-08T01:00:07.201Z,0
2019-06-08T01:01:19.437Z,0
2019-06-08T01:02:31.383Z,0
2019-06-08T01:03:43.579Z,0
2019-06-08T01:04:55.876Z,0
2019-06-08T01:06:07.969Z,0
2019-06-08T01:07:20.254Z,0
2019-06-08T01:08:32.358Z,0
2019-06-08T01:09:44.717Z,0
2019-06-08T01:10:56.814Z,0
2019-06-08T01:12:08.969Z,0
2019-06-08T01:13:21.273Z,0
2019-06-08T01:14:33.415Z,0
2019-06-08T01:15:45.668Z,0
2019-06-08T01:16:57.724Z,0
2019-06-08T01:18:09.912Z,0
2019-06-08T01:19:22.229Z,0
2019-06-08T01:20:34.501Z,0
2019-06-08T01:21:46.525Z,0
2019-06-08T01:22:58.704Z,0
2019-06-08T01:24:10.991Z,0
2019-06-08T01:25:23.181Z,0
2019-06-08T01:26:35.376Z,0
2019-06-08T01:27:47.548Z,0
2019-06-08T01:28:59.668Z,0
2019-06-08T01:30:11.865Z,0
2019-06-08T01:31:24.059Z,0
2019-06-08T01:32:36.269Z,0
2019-06-08T01:33:51.022Z,0
2019-06-08T01:35:00.760Z,0
2019-06-08T01:36:12.930Z,0
2019-06-08T01:37:25.130Z,0
2019-06-08T01:38:37.241Z,0
2019-06-08T01:39:49.416Z,0
2019-06-08T01:41:01.780Z,0
2019-06-08T01:42:13.832Z,0
2019-06-08T01:43:26.230Z,0
2019-06-08T01:44:38.230Z,0
2019-06-08T01:45:50.400Z,0
2019-06-08T01:47:02.615Z,0
2019-06-08T01:48:14.804Z,0
2019-06-08T01:49:27.078Z,0
2019-06-08T01:50:39.270Z,0
2019-06-08T01:51:51.436Z,0
2019-06-08T01:53:03.676Z,0
2019-06-08T01:54:15.779Z,0
2019-06-08T01:55:28.036Z,0
2019-06-08T01:56:41.273Z,0
2019-06-08T01:57:52.439Z,0
2019-06-08T01:59:04.563Z,0
2019-06-08T02:00:16.865Z,0
2019-06-08T02:01:29.038Z,0
2019-06-08T02:02:41.199Z,0
2019-06-08T02:03:53.445Z,0
2019-06-08T02:05:05.605Z,0
2019-06-08T02:06:17.745Z,0
2019-06-08T02:07:29.936Z,0
2019-06-08T02:08:42.101Z,0
2019-06-08T02:09:54.435Z,0
2019-06-08T02:11:06.540Z,0
2019-06-08T02:12:18.779Z,0
2019-06-08T02:13:31.013Z,0
2019-06-08T02:14:43.177Z,0
2019-06-08T02:15:55.283Z,0
2019-06-08T02:17:07.546Z,0
2019-06-08T02:18:19.700Z,0
2019-06-08T02:19:31.888Z,0
2019-06-08T02:20:44.060Z,0
2019-06-08T02:21:56.241Z,0
2019-06-08T02:23:08.505Z,0
2019-06-08T02:24:20.760Z,0
2019-06-08T02:25:33.015Z,0
2019-06-08T02:26:45.114Z,0
2019-06-08T02:27:57.309Z,0
2019-06-08T02:29:09.513Z,0
2019-06-08T02:30:21.644Z,0
2019-06-08T02:31:37.200Z,0
2019-06-08T02:32:46.001Z,0
2019-06-08T02:33:58.314Z,0
2019-06-08T02:35:10.446Z,0
2019-06-08T02:36:22.835Z,0
2019-06-08T02:37:34.886Z,0
2019-06-08T02:38:47.164Z,0
2019-06-08T02:39:59.181Z,0
2019-06-08T02:41:11.468Z,0
2019-06-08T02:42:23.683Z,0
2019-06-08T02:43:35.767Z,0
2019-06-08T02:44:47.954Z,0
2019-06-08T02:46:00.248Z,0
2019-06-08T02:47:12.426Z,0
2019-06-08T02:48:24.630Z,0
2019-06-08T02:49:36.932Z,0
2019-06-08T02:50:48.941Z,0
2019-06-08T02:52:01.215Z,0
2019-06-08T02:53:13.393Z,0
2019-06-08T02:54:25.633Z,0
2019-06-08T02:55:37.828Z,0
2019-06-08T02:56:49.920Z,4
2019-06-08T02:58:02.108Z,4
2019-06-08T02:59:14.306Z,4
2019-06-08T03:00:26.576Z,0
2019-06-08T03:01:38.797Z,4
2019-06-08T03:02:50.992Z,4
2019-06-08T03:04:03.095Z,4
2019-06-08T03:05:15.372Z,4
2019-06-08T03:06:27.545Z,8
2019-06-08T03:07:39.666Z,8
2019-06-08T03:08:51.869Z,8
2019-06-08T03:10:04.177Z,12
2019-06-08T03:11:16.255Z,8
2019-06-08T03:12:28.574Z,16
2019-06-08T03:13:40.829Z,16
2019-06-08T03:14:52.932Z,16
2019-06-08T03:16:05.131Z,20
2019-06-08T03:17:17.319Z,24
2019-06-08T03:18:29.529Z,24
2019-06-08T03:19:41.820Z,24
2019-06-08T03:20:53.818Z,24
2019-06-08T03:22:06.180Z,28
2019-06-08T03:23:18.202Z,28
2019-06-08T03:24:30.482Z,28
2019-06-08T03:25:42.709Z,28
2019-06-08T03:26:54.799Z,32
2019-06-08T03:28:06.987Z,32
2019-06-08T03:29:20.939Z,36
2019-06-08T03:30:31.394Z,36
2019-06-08T03:31:43.663Z,36
2019-06-08T03:32:55.777Z,40
2019-06-08T03:34:08.082Z,44
2019-06-08T03:35:20.174Z,44
2019-06-08T03:36:32.450Z,52
2019-06-08T03:37:44.680Z,52
2019-06-08T03:38:56.837Z,56
2019-06-08T03:40:09.000Z,60
2019-06-08T03:41:21.318Z,56
2019-06-08T03:42:33.391Z,64
2019-06-08T03:43:45.613Z,72
2019-06-08T03:44:57.746Z,72
2019-06-08T03:46:09.976Z,76
2019-06-08T03:47:22.146Z,84
2019-06-08T03:48:34.432Z,92
2019-06-08T03:49:46.605Z,96
2019-06-08T03:50:58.787Z,108
2019-06-08T03:52:10.889Z,112
2019-06-08T03:53:23.224Z,116
2019-06-08T03:54:35.286Z,108
2019-06-08T03:55:47.657Z,120
2019-06-08T03:56:59.710Z,140
2019-06-08T03:58:12.044Z,136
2019-06-08T03:59:27.303Z,148
2019-06-08T04:00:36.273Z,152
2019-06-08T04:01:48.552Z,156
2019-06-08T04:03:00.751Z,164
2019-06-08T04:04:12.925Z,176
2019-06-08T04:05:25.177Z,148
2019-06-08T04:06:37.380Z,144
2019-06-08T04:07:49.438Z,172
2019-06-08T04:09:01.638Z,176
2019-06-08T04:10:13.828Z,176
2019-06-08T04:11:26.022Z,196
2019-06-08T04:12:38.430Z,180
2019-06-08T04:13:50.580Z,192
2019-06-08T04:15:02.668Z,256
2019-06-08T04:16:15.008Z,252
2019-06-08T04:17:27.141Z,260
2019-06-08T04:18:39.214Z,320
2019-06-08T04:19:51.500Z,332
2019-06-08T04:21:03.677Z,324
2019-06-08T04:22:15.878Z,320
2019-06-08T04:23:28.028Z,292
2019-06-08T04:24:40.340Z,368
2019-06-08T04:25:52.445Z,360
2019-06-08T04:27:04.715Z,328
2019-06-08T04:28:16.931Z,320
2019-06-08T04:29:29.029Z,376
2019-06-08T04:30:41.167Z,476
2019-06-08T04:31:53.441Z,404
2019-06-08T04:33:05.529Z,572
2019-06-08T04:34:17.818Z,640
2019-06-08T04:35:29.942Z,536
2019-06-08T04:36:42.192Z,560
2019-06-08T04:37:54.732Z,600
2019-06-08T04:39:06.520Z,500
2019-06-08T04:40:18.711Z,608
2019-06-08T04:41:31.009Z,676
2019-06-08T04:42:43.184Z,732
2019-06-08T04:43:55.375Z,828
2019-06-08T04:45:07.577Z,1100
2019-06-08T04:46:19.778Z,1140
2019-06-08T04:47:31.904Z,1132
2019-06-08T04:48:44.149Z,1632
2019-06-08T04:49:56.365Z,2592
2019-06-08T04:51:08.569Z,1984
2019-06-08T04:52:20.811Z,1680
2019-06-08T04:53:32.942Z,2028
2019-06-08T04:54:45.150Z,2180
2019-06-08T04:55:57.336Z,2332
2019-06-08T04:57:09.457Z,2700
2019-06-08T04:58:21.705Z,2520
2019-06-08T04:59:33.930Z,2204
2019-06-08T05:00:46.130Z,2124
2019-06-08T05:01:58.437Z,2300
2019-06-08T05:03:10.509Z,2448
2019-06-08T05:04:22.627Z,2076
2019-06-08T05:05:34.910Z,1572
2019-06-08T05:06:47.089Z,1840
2019-06-08T05:07:59.374Z,3124
2019-06-08T05:09:11.401Z,3260
2019-06-08T05:10:23.753Z,3204
2019-06-08T05:11:35.806Z,3464
2019-06-08T05:12:48.053Z,3192
2019-06-08T05:14:00.259Z,4096
2019-06-08T05:15:12.436Z,4480
2019-06-08T05:16:26.049Z,4912
2019-06-08T05:17:36.780Z,5108
2019-06-08T05:18:48.966Z,5188
2019-06-08T05:20:01.240Z,5064
2019-06-08T05:21:13.345Z,5144
2019-06-08T05:22:25.711Z,4488
2019-06-08T05:23:37.842Z,4176
2019-06-08T05:24:50.025Z,4568
2019-06-08T05:26:02.216Z,4616
2019-06-08T05:27:14.415Z,3960
2019-06-08T05:28:26.515Z,3684
2019-06-08T05:29:38.724Z,4056
2019-06-08T05:30:51.049Z,4904
2019-06-08T05:32:03.166Z,6604
2019-06-08T05:33:21.047Z,6384
2019-06-08T05:34:27.605Z,5980
2019-06-08T05:35:39.685Z,6684
2019-06-08T05:36:52.384Z,7140
2019-06-08T05:38:04.182Z,6092
2019-06-08T05:39:16.319Z,5300
2019-06-08T05:40:28.465Z,4312
2019-06-08T05:41:40.780Z,4252
2019-06-08T05:42:52.970Z,3904
2019-06-08T05:44:05.056Z,3444
2019-06-08T05:45:17.246Z,3624
2019-06-08T05:46:29.521Z,3332
2019-06-08T05:47:41.666Z,3324
2019-06-08T05:48:53.832Z,3908
2019-06-08T05:50:08.083Z,4160
2019-06-08T05:51:18.231Z,4324
2019-06-08T05:52:30.429Z,4020
2019-06-08T05:53:42.777Z,3548
2019-06-08T05:54:57.029Z,3288
2019-06-08T05:56:07.187Z,3944
2019-06-08T05:57:19.233Z,4572
2019-06-08T05:58:31.506Z,4076
2019-06-08T05:59:43.600Z,4208
2019-06-08T06:00:55.868Z,4240
2019-06-08T06:02:08.084Z,5408
2019-06-08T06:03:20.352Z,6080
2019-06-08T06:04:32.373Z,5616
2019-06-08T06:05:44.759Z,5612
2019-06-08T06:06:56.842Z,5592
2019-06-08T06:08:09.100Z,5272
2019-06-08T06:09:21.281Z,4880
2019-06-08T06:10:33.422Z,4696
2019-06-08T06:11:45.742Z,4892
2019-06-08T06:12:57.931Z,4272
2019-06-08T06:14:10.974Z,4152
2019-06-08T06:15:22.242Z,4004
2019-06-08T06:16:34.418Z,3700
2019-06-08T06:17:46.592Z,3792
2019-06-08T06:18:58.796Z,4116
2019-06-08T06:20:11.043Z,4492
2019-06-08T06:21:23.120Z,4340
2019-06-08T06:22:35.318Z,4144
2019-06-08T06:23:47.501Z,4336
2019-06-08T06:25:00.288Z,4460
2019-06-08T06:26:12.081Z,3964
2019-06-08T06:27:30.307Z,4344
2019-06-08T06:28:36.283Z,4796
2019-06-08T06:29:48.548Z,4512
2019-06-08T06:31:00.792Z,5864
2019-06-08T06:32:12.964Z,6348
2019-06-08T06:33:25.058Z,6688
2019-06-08T06:34:37.369Z,6156
2019-06-08T06:35:49.553Z,5872
2019-06-08T06:37:01.721Z,6760
2019-06-08T06:38:13.942Z,6980
2019-06-08T06:39:26.130Z,7904
2019-06-08T06:40:38.251Z,7980
2019-06-08T06:41:50.510Z,9008
2019-06-08T06:43:07.445Z,10252
2019-06-08T06:44:14.884Z,12732
2019-06-08T06:45:27.026Z,14540
2019-06-08T06:46:39.288Z,29504
2019-06-08T06:47:51.417Z,12280
2019-06-08T06:49:03.770Z,11336
2019-06-08T06:50:15.905Z,10124
2019-06-08T06:51:28.073Z,8480
2019-06-08T06:52:40.376Z,7940
2019-06-08T06:53:52.493Z,7188
2019-06-08T06:55:04.597Z,6440
2019-06-08T06:56:16.861Z,5420
2019-06-08T06:57:28.980Z,5000
2019-06-08T06:58:41.255Z,5436
2019-06-08T06:59:53.414Z,6188
2019-06-08T07:01:05.647Z,5960
2019-06-08T07:02:17.861Z,7036
2019-06-08T07:03:29.945Z,7600
2019-06-08T07:04:42.319Z,7868
2019-06-08T07:05:54.338Z,6676
2019-06-08T07:07:06.666Z,6228
2019-06-08T07:08:18.855Z,5396
2019-06-08T07:09:31.233Z,5008
2019-06-08T07:11:55.409Z,4956
2019-06-08T07:16:44.159Z,4876
2019-06-08T07:17:56.283Z,5608
2019-06-08T07:19:08.568Z,6100
2019-06-08T07:20:20.859Z,7032
2019-06-08T07:21:32.911Z,7104
2019-06-08T07:22:45.165Z,7612
2019-06-08T07:23:57.280Z,7516
2019-06-08T07:25:10.077Z,7808
2019-06-08T07:26:21.753Z,6980
2019-06-08T07:27:33.880Z,7908
2019-06-08T07:28:51.876Z,8968
2019-06-08T07:29:58.388Z,8396
2019-06-08T07:31:10.524Z,8428
2019-06-08T07:32:22.739Z,9480
2019-06-08T07:33:34.851Z,11004
2019-06-08T07:34:47.205Z,11676
2019-06-08T07:35:59.215Z,10284
2019-06-08T07:37:11.600Z,12576
2019-06-08T07:38:23.772Z,17408
2019-06-08T07:39:35.801Z,19328
2019-06-08T07:40:47.999Z,21856
2019-06-08T07:42:00.243Z,15996
2019-06-08T07:43:12.469Z,16896
2019-06-08T07:44:24.721Z,20672
2019-06-08T07:45:36.947Z,13944
2019-06-08T07:46:48.985Z,11628
2019-06-08T07:48:01.189Z,14348
2019-06-08T07:49:13.460Z,13452
2019-06-08T07:50:25.716Z,12828
2019-06-08T07:51:37.862Z,12476
2019-06-08T07:52:49.978Z,7456
2019-06-08T07:54:02.243Z,7472
2019-06-08T07:55:14.412Z,6616
2019-06-08T07:56:26.586Z,6508
2019-06-08T07:57:38.840Z,7180
2019-06-08T07:58:51.045Z,9156
2019-06-08T08:00:03.145Z,10044
2019-06-08T08:01:15.561Z,11284
2019-06-08T08:02:27.668Z,7364
2019-06-08T08:03:39.795Z,8656
2019-06-08T08:04:51.941Z,9588
2019-06-08T08:06:04.215Z,8792
2019-06-08T08:07:16.388Z,9560
2019-06-08T08:08:28.726Z,11956
2019-06-08T08:09:40.729Z,13624
2019-06-08T08:10:53.218Z,14928
2019-06-08T08:12:05.064Z,12912
2019-06-08T08:13:17.370Z,11916
2019-06-08T08:14:29.550Z,13428
2019-06-08T08:15:41.759Z,12152
2019-06-08T08:16:53.949Z,13740
2019-06-08T08:18:06.135Z,14680
2019-06-08T08:19:18.336Z,17408
2019-06-08T08:20:30.610Z,20640
2019-06-08T08:21:42.622Z,17536
2019-06-08T08:22:54.923Z,17056
2019-06-08T08:24:07.123Z,15772
2019-06-08T08:25:21.384Z,12368
2019-06-08T08:26:31.550Z,10048
2019-06-08T08:27:43.685Z,9248
2019-06-08T08:28:55.868Z,7896
2019-06-08T08:30:08.115Z,8204
2019-06-08T08:31:20.252Z,8484
2019-06-08T08:32:32.478Z,7616
2019-06-08T08:33:44.594Z,6396
2019-06-08T08:34:56.969Z,5640
2019-06-08T08:36:09.067Z,4828
2019-06-08T08:37:21.287Z,4048
2019-06-08T08:38:33.441Z,3568
2019-06-08T08:39:45.708Z,3156
2019-06-08T08:40:57.759Z,2864
2019-06-08T08:42:10.046Z,2836
2019-06-08T08:43:22.264Z,2808
2019-06-08T08:44:34.437Z,3364
2019-06-08T08:45:46.549Z,3292
2019-06-08T08:46:58.786Z,3464
2019-06-08T08:48:10.920Z,3048
2019-06-08T08:49:23.193Z,2580
2019-06-08T08:50:35.394Z,2336
2019-06-08T08:51:47.611Z,2536
2019-06-08T08:52:59.759Z,2804
2019-06-08T08:54:11.986Z,2956
2019-06-08T08:55:24.174Z,2808
2019-06-08T08:56:36.331Z,2828
2019-06-08T08:57:48.504Z,2800
2019-06-08T08:59:00.763Z,2544
2019-06-08T09:00:12.867Z,2512
2019-06-08T09:01:25.147Z,2752
2019-06-08T09:02:37.385Z,3180
2019-06-08T09:03:49.540Z,3556
2019-06-08T09:05:01.739Z,3648
2019-06-08T09:06:13.931Z,4052
2019-06-08T09:07:26.163Z,4784
2019-06-08T09:08:38.311Z,6236
2019-06-08T09:09:50.501Z,11536
2019-06-08T09:11:02.715Z,10984
2019-06-08T09:12:14.815Z,10276
2019-06-08T09:13:27.098Z,19840
2019-06-08T09:14:39.297Z,68832
2019-06-08T09:15:51.470Z,103200
2019-06-08T09:17:03.751Z,100160
2019-06-08T09:18:15.804Z,39040
2019-06-08T09:19:28.084Z,49120
2019-06-08T09:20:40.382Z,17760
2019-06-08T09:21:52.549Z,46080
2019-06-08T09:23:04.662Z,33088
2019-06-08T09:24:16.767Z,25664
2019-06-08T09:25:30.311Z,30304
2019-06-08T09:26:41.249Z,27104
2019-06-08T09:27:53.434Z,37792
2019-06-08T09:29:05.651Z,23712
2019-06-08T09:30:17.918Z,19552
2019-06-08T09:31:29.964Z,18272
2019-06-08T09:32:42.226Z,24928
2019-06-08T09:33:54.357Z,17216
2019-06-08T09:35:06.673Z,14564
2019-06-08T09:36:18.730Z,18144
2019-06-08T09:37:30.985Z,17760
2019-06-08T09:38:43.206Z,26272
2019-06-08T09:39:55.404Z,22464
2019-06-08T09:41:07.637Z,12620
2019-06-08T09:42:19.778Z,9244
2019-06-08T09:43:31.985Z,7968
2019-06-08T09:44:44.206Z,7832
2019-06-08T09:45:56.326Z,7776
2019-06-08T09:47:08.610Z,6824
2019-06-08T09:48:20.667Z,6532
2019-06-08T09:49:32.955Z,9072
2019-06-08T09:50:45.252Z,9592
2019-06-08T09:51:57.452Z,7972
2019-06-08T09:53:09.476Z,5740
2019-06-08T09:54:21.748Z,6380
2019-06-08T09:55:37.385Z,7140
2019-06-08T09:56:51.860Z,7136
2019-06-08T09:57:58.260Z,7252
2019-06-08T09:59:10.515Z,6260
2019-06-08T10:00:22.813Z,7340
2019-06-08T10:01:34.894Z,6340
2019-06-08T10:02:47.109Z,6496
2019-06-08T10:03:59.306Z,7216
2019-06-08T10:05:11.397Z,8908
2019-06-08T10:06:23.656Z,9000
2019-06-08T10:07:35.911Z,9608
2019-06-08T10:08:48.101Z,10388
2019-06-08T10:10:00.260Z,12436
2019-06-08T10:11:12.539Z,13836
2019-06-08T10:12:24.570Z,19840
2019-06-08T10:13:36.827Z,77280
2019-06-08T10:14:49.136Z,22816
2019-06-08T10:16:01.259Z,20544
2019-06-08T10:17:13.365Z,33056
2019-06-08T10:18:25.691Z,52960
2019-06-08T10:19:37.842Z,69184
2019-06-08T10:20:50.044Z,120384
2019-06-08T10:22:02.141Z,20128
2019-06-08T10:23:14.398Z,21088
2019-06-08T10:24:26.555Z,15568
2019-06-08T10:25:38.818Z,13308
2019-06-08T10:26:51.068Z,12508
2019-06-08T10:28:03.199Z,10312
2019-06-08T10:29:15.489Z,14208
2019-06-08T10:30:27.598Z,15264
2019-06-08T10:31:39.792Z,17792
2019-06-08T10:32:51.986Z,18592
2019-06-08T10:34:04.099Z,16768
2019-06-08T10:35:16.420Z,14328
2019-06-08T10:36:28.471Z,12064
2019-06-08T10:37:40.737Z,9840
2019-06-08T10:38:53.005Z,10340
2019-06-08T10:40:05.157Z,12080
2019-06-08T10:41:17.255Z,14260
2019-06-08T10:42:29.515Z,16512
2019-06-08T10:43:41.805Z,17152
2019-06-08T10:44:55.535Z,16544
2019-06-08T10:46:06.075Z,15012
2019-06-08T10:47:18.307Z,11576
2019-06-08T10:48:30.405Z,10972
2019-06-08T10:49:42.694Z,11224
2019-06-08T10:50:54.953Z,7236
2019-06-08T10:52:07.110Z,7084
2019-06-08T10:53:19.194Z,10928
2019-06-08T10:54:31.603Z,17184
2019-06-08T10:55:43.635Z,19008
2019-06-08T10:56:56.717Z,21408
2019-06-08T10:58:07.947Z,19040
2019-06-08T10:59:20.208Z,18912
2019-06-08T11:00:32.337Z,106848
2019-06-08T11:01:44.621Z,25920
2019-06-08T11:02:56.857Z,20736
2019-06-08T11:04:09.005Z,22208
2019-06-08T11:05:21.203Z,24832
2019-06-08T11:06:33.344Z,118016
2019-06-08T11:07:45.579Z,15420
2019-06-08T11:08:57.809Z,13144
2019-06-08T11:10:09.890Z,14528
2019-06-08T11:11:22.267Z,17088
2019-06-08T11:12:34.299Z,18304
2019-06-08T11:13:46.583Z,19712
2019-06-08T11:15:00.097Z,24736
2019-06-08T11:16:10.957Z,53568
2019-06-08T11:17:23.045Z,22080
2019-06-08T11:18:35.295Z,20256
2019-06-08T11:19:47.515Z,23776
2019-06-08T11:20:59.715Z,20832
2019-06-08T11:22:11.842Z,14816
2019-06-08T11:23:24.110Z,12604
2019-06-08T11:24:36.347Z,22624
2019-06-08T11:25:48.479Z,51872
2019-06-08T11:27:00.701Z,20000
2019-06-08T11:28:12.875Z,25696
2019-06-08T11:29:25.012Z,85440
2019-06-08T11:30:37.359Z,18720
2019-06-08T11:31:49.470Z,51104
2019-06-08T11:33:01.653Z,19712
2019-06-08T11:34:13.772Z,13168
2019-06-08T11:35:26.049Z,16704
2019-06-08T11:36:38.229Z,15832
2019-06-08T11:37:51.732Z,15856
2019-06-08T11:39:02.627Z,15856
2019-06-08T11:40:14.816Z,13508
2019-06-08T11:41:26.995Z,12756
2019-06-08T11:42:39.214Z,11668
2019-06-08T11:43:51.360Z,9560
2019-06-08T11:45:03.613Z,9356
2019-06-08T11:46:15.688Z,11216
2019-06-08T11:47:27.953Z,14408
2019-06-08T11:48:40.155Z,13656
2019-06-08T11:49:52.399Z,13164
2019-06-08T11:51:04.604Z,11220
2019-06-08T11:52:16.742Z,10620
2019-06-08T11:53:28.983Z,11096
2019-06-08T11:54:41.245Z,10964
2019-06-08T11:55:53.417Z,12160
2019-06-08T11:57:05.521Z,14768
2019-06-08T11:58:17.711Z,14488
2019-06-08T11:59:29.970Z,15712
2019-06-08T12:00:42.042Z,15240
2019-06-08T12:01:54.824Z,15892
2019-06-08T12:03:06.491Z,17280
2019-06-08T12:04:18.706Z,15276
2019-06-08T12:05:30.784Z,12352
2019-06-08T12:06:43.085Z,10680
2019-06-08T12:07:55.181Z,10844
2019-06-08T12:09:07.423Z,11624
2019-06-08T12:10:19.552Z,10692
2019-06-08T12:11:31.835Z,11864
2019-06-08T12:12:47.469Z,15924
2019-06-08T12:13:56.231Z,15928
2019-06-08T12:15:08.431Z,16024
2019-06-08T12:16:20.621Z,15280
2019-06-08T12:17:36.925Z,13812
2019-06-08T12:18:45.008Z,12312
2019-06-08T12:19:57.609Z,13000
2019-06-08T12:21:09.398Z,11632
2019-06-08T12:22:21.513Z,12372
2019-06-08T12:23:33.783Z,14052
2019-06-08T12:24:45.911Z,14276
2019-06-08T12:25:58.156Z,15340
2019-06-08T12:27:10.368Z,14044
2019-06-08T12:28:22.625Z,11940
2019-06-08T12:29:34.741Z,12908
2019-06-08T12:30:52.272Z,16640
2019-06-08T12:31:59.125Z,18880
2019-06-08T12:33:11.326Z,16012
2019-06-08T12:34:23.460Z,14176
2019-06-08T12:35:35.731Z,15744
2019-06-08T12:36:47.858Z,15936
2019-06-08T12:38:00.063Z,14412
2019-06-08T12:39:12.318Z,11652
2019-06-08T12:40:24.502Z,9528
2019-06-08T12:41:36.690Z,8244
2019-06-08T12:42:51.218Z,9944
2019-06-08T12:44:00.979Z,10452
2019-06-08T12:45:13.274Z,14300
2019-06-08T12:46:25.961Z,16136
2019-06-08T12:47:37.630Z,11032
2019-06-08T12:48:49.836Z,10800
2019-06-08T12:50:02.122Z,11072
2019-06-08T12:51:20.838Z,13012
2019-06-08T12:52:26.544Z,10340
2019-06-08T12:53:38.603Z,8724
2019-06-08T12:54:50.829Z,9140
2019-06-08T12:56:03.083Z,13772
2019-06-08T12:57:15.246Z,16252
2019-06-08T12:58:27.312Z,14360
2019-06-08T12:59:39.544Z,16316
2019-06-08T13:00:51.709Z,16008
2019-06-08T13:02:03.938Z,12044
2019-06-08T13:03:16.191Z,8812
2019-06-08T13:04:28.286Z,9900
2019-06-08T13:05:40.534Z,13508
2019-06-08T13:06:53.155Z,12420
2019-06-08T13:08:04.936Z,13132
2019-06-08T13:09:17.157Z,10904
2019-06-08T13:10:29.289Z,12328
2019-06-08T13:11:41.651Z,13484
2019-06-08T13:12:53.651Z,13304
2019-06-08T13:14:08.037Z,11568
2019-06-08T13:15:18.161Z,10028
2019-06-08T13:16:30.311Z,13364
2019-06-08T13:17:42.396Z,14984
2019-06-08T13:18:54.680Z,9712
2019-06-08T13:20:06.889Z,11256
2019-06-08T13:21:19.058Z,12480
2019-06-08T13:22:31.172Z,12460
2019-06-08T13:23:43.548Z,11388
2019-06-08T13:24:55.550Z,12756
2019-06-08T13:26:07.832Z,14080
2019-06-08T13:27:20.106Z,13328
2019-06-08T13:28:32.230Z,13448
2019-06-08T13:29:44.407Z,11728
2019-06-08T13:30:56.593Z,10044
2019-06-08T13:32:08.715Z,7008
2019-06-08T13:33:21.097Z,5324
2019-06-08T13:34:33.111Z,5684
2019-06-08T13:35:45.404Z,5468
2019-06-08T13:36:57.565Z,5440
2019-06-08T13:38:09.773Z,5364
2019-06-08T13:39:22.052Z,5796
2019-06-08T13:40:34.154Z,7728
2019-06-08T13:41:46.283Z,10800
2019-06-08T13:42:59.973Z,12916
2019-06-08T13:44:10.749Z,13492
2019-06-08T13:45:22.948Z,10544
2019-06-08T13:46:35.103Z,6792
2019-06-08T13:47:47.341Z,7208
2019-06-08T13:48:59.435Z,9800
2019-06-08T13:50:11.756Z,13040
2019-06-08T13:51:23.921Z,15504
2019-06-08T13:52:36.347Z,15364
2019-06-08T13:53:48.307Z,15392
2019-06-08T13:55:00.493Z,15948
2019-06-08T13:56:12.670Z,16136
2019-06-08T13:57:24.989Z,14108
2019-06-08T13:58:36.976Z,11208
2019-06-08T13:59:49.272Z,11840
2019-06-08T14:01:01.365Z,13668
2019-06-08T14:02:13.679Z,13544
2019-06-08T14:03:25.837Z,11904
2019-06-08T14:04:38.051Z,11592
2019-06-08T14:05:50.219Z,12372
2019-06-08T14:07:02.419Z,13920
2019-06-08T14:08:14.530Z,13756
2019-06-08T14:09:26.809Z,10268
2019-06-08T14:10:38.935Z,7676
2019-06-08T14:11:51.276Z,7052
2019-06-08T14:13:03.432Z,7192
2019-06-08T14:14:15.591Z,9188
2019-06-08T14:15:27.856Z,8644
2019-06-08T14:16:40.050Z,7896
2019-06-08T14:17:52.184Z,9804
2019-06-08T14:19:04.277Z,7864
2019-06-08T14:20:16.638Z,6708
2019-06-08T14:21:28.819Z,8116
2019-06-08T14:22:40.840Z,7140
2019-06-08T14:23:53.431Z,6064
2019-06-08T14:25:05.231Z,8036
2019-06-08T14:26:17.420Z,10872
2019-06-08T14:27:29.813Z,9800
2019-06-08T14:28:43.986Z,8504
2019-06-08T14:29:57.585Z,7340
2019-06-08T14:31:06.309Z,7684
2019-06-08T14:32:18.407Z,8560
2019-06-08T14:33:30.667Z,7788
2019-06-08T14:34:42.779Z,7020
2019-06-08T14:35:55.071Z,5824
2019-06-08T14:37:07.304Z,4480
2019-06-08T14:38:19.455Z,4684
2019-06-08T14:39:31.642Z,4840
2019-06-08T14:40:43.779Z,5288
2019-06-08T14:41:55.950Z,5180
2019-06-08T14:43:08.251Z,5356
2019-06-08T14:44:20.380Z,5140
2019-06-08T14:45:32.603Z,4604
2019-06-08T14:46:44.846Z,5200
2019-06-08T14:47:56.908Z,9008
2019-06-08T14:49:09.148Z,11240
2019-06-08T14:50:21.307Z,8932
2019-06-08T14:51:33.652Z,6620
2019-06-08T14:52:45.780Z,5420
2019-06-08T14:53:57.931Z,5564
2019-06-08T14:55:10.096Z,6376
2019-06-08T14:56:22.395Z,5196
2019-06-08T14:57:34.530Z,5696
2019-06-08T14:58:46.669Z,6432
2019-06-08T14:59:58.849Z,5964
2019-06-08T15:01:11.029Z,6860
2019-06-08T15:02:23.244Z,7560
2019-06-08T15:03:35.503Z,7552
2019-06-08T15:04:47.765Z,9084
2019-06-08T15:06:00.040Z,8476
2019-06-08T15:07:12.198Z,7148
2019-06-08T15:08:24.221Z,6492
2019-06-08T15:09:36.606Z,5132
2019-06-08T15:10:48.599Z,4016
2019-06-08T15:12:00.857Z,4736
2019-06-08T15:13:12.975Z,5872
2019-06-08T15:14:25.331Z,5292
2019-06-08T15:15:37.501Z,4804
2019-06-08T15:16:49.590Z,4188
2019-06-08T15:18:01.832Z,3580
2019-06-08T15:19:14.015Z,3432
2019-06-08T15:20:26.235Z,3480
2019-06-08T15:21:38.410Z,4756
2019-06-08T15:22:50.510Z,5064
2019-06-08T15:24:02.716Z,4192
2019-06-08T15:25:15.764Z,3464
2019-06-08T15:26:27.110Z,3420
2019-06-08T15:27:39.386Z,3976
2019-06-08T15:28:51.665Z,5376
2019-06-08T15:30:03.697Z,5284
2019-06-08T15:31:15.990Z,7592
2019-06-08T15:32:28.166Z,6256
2019-06-08T15:33:40.327Z,6808
2019-06-08T15:34:52.450Z,6108
2019-06-08T15:36:04.694Z,6172
2019-06-08T15:37:16.857Z,5752
2019-06-08T15:38:29.078Z,4408
2019-06-08T15:39:41.356Z,3692
2019-06-08T15:40:55.952Z,3808
2019-06-08T15:42:05.692Z,3780
2019-06-08T15:43:17.891Z,3988
2019-06-08T15:44:30.093Z,3880
2019-06-08T15:45:42.298Z,3712
2019-06-08T15:46:54.390Z,3692
2019-06-08T15:48:06.671Z,4540
2019-06-08T15:49:18.775Z,5576
2019-06-08T15:50:30.970Z,6888
2019-06-08T15:51:43.253Z,7680
2019-06-08T15:52:55.374Z,7504
2019-06-08T15:54:07.546Z,7504
2019-06-08T15:55:19.834Z,7816
2019-06-08T15:56:32.049Z,8336
2019-06-08T15:57:44.209Z,8212
2019-06-08T15:58:56.425Z,7784
2019-06-08T16:00:08.619Z,7424
2019-06-08T16:01:20.707Z,8132
2019-06-08T16:02:33.001Z,8128
2019-06-08T16:03:45.186Z,7620
2019-06-08T16:04:57.387Z,6148
2019-06-08T16:06:09.573Z,4180
2019-06-08T16:07:21.798Z,3344
2019-06-08T16:08:33.885Z,3008
2019-06-08T16:09:46.153Z,2868
2019-06-08T16:10:58.336Z,2800
2019-06-08T16:12:10.589Z,2776
2019-06-08T16:13:22.643Z,3060
2019-06-08T16:14:34.837Z,4100
2019-06-08T16:15:47.124Z,3660
2019-06-08T16:16:59.326Z,3076
2019-06-08T16:18:11.503Z,2916
2019-06-08T16:19:23.707Z,3196